Terminal Aerodrome Forecast
Issued by NWS

Home | Current Version | Previous Version | Text Only | Print | Product List | Glossary On
Versions: 1 2 3 4 5 6 7 8 9 10 11 12 13 14 15 16 17 18 19 20 21 22
000
FTUS41 KBGM 221100
TAFITH
TAF
KITH 221139Z 2212/2312 18010KT P6SM BKN120
     FM221700 19015KT P6SM OVC040
     FM222000 19013KT P6SM -SHRA OVC030 WS020/24048KT
     FM230700 18010KT P6SM BKN040=

USA.gov is the U.S. government's official web portal to all federal, state and local government web resources and services.